createdAt,value
2022-10-11T00:01:31.321Z,100.00
2022-10-11T00:03:57.900Z,100.00
2022-10-11T00:06:26.605Z,100.00
2022-10-11T00:08:53.183Z,100.00
2022-10-11T00:11:19.733Z,100.00
2022-10-11T00:13:46.350Z,100.00
2022-10-11T00:16:14.236Z,100.00
2022-10-11T00:18:41.483Z,100.00
2022-10-11T00:21:12.144Z,100.00
2022-10-11T00:23:39.014Z,100.00
2022-10-11T00:26:08.043Z,100.00
2022-10-11T00:28:35.846Z,100.00
2022-10-11T00:31:05.313Z,100.00
2022-10-11T00:33:32.091Z,100.00
2022-10-11T00:36:00.775Z,100.00
2022-10-11T00:38:31.983Z,100.00
2022-10-11T00:40:59.964Z,100.00
2022-10-11T00:43:31.294Z,100.00
2022-10-11T00:46:06.905Z,100.00
2022-10-11T00:48:39.031Z,100.00
2022-10-11T00:51:12.999Z,100.00
2022-10-11T00:53:40.480Z,100.00
2022-10-11T00:56:13.078Z,100.00
2022-10-11T00:58:41.370Z,100.00
2022-10-11T01:01:08.198Z,100.00
2022-10-11T01:03:37.587Z,100.00
2022-10-11T01:06:04.494Z,100.00
2022-10-11T01:08:31.758Z,100.00
2022-10-11T01:10:59.250Z,100.00
2022-10-11T01:13:37.631Z,100.00
2022-10-11T01:16:10.188Z,100.00
2022-10-11T01:19:02.770Z,100.00
2022-10-11T01:21:48.105Z,100.00
2022-10-11T01:24:17.781Z,100.00
2022-10-11T01:26:53.114Z,100.00
2022-10-11T01:30:01.122Z,100.00
2022-10-11T01:32:38.126Z,100.00
2022-10-11T01:35:13.174Z,100.00
2022-10-11T01:37:46.394Z,100.00
2022-10-11T01:40:21.487Z,100.00
2022-10-11T01:42:49.355Z,100.00
2022-10-11T01:45:18.851Z,100.00
2022-10-11T01:47:48.734Z,100.00
2022-10-11T01:50:55.616Z,100.00
2022-10-11T01:53:31.461Z,100.00
2022-10-11T01:56:14.862Z,100.00
2022-10-11T01:59:12.013Z,100.00
2022-10-11T02:01:53.847Z,100.00
2022-10-11T02:04:37.210Z,100.00
2022-10-11T02:07:17.058Z,100.00
2022-10-11T02:09:56.816Z,100.00
2022-10-11T02:12:37.743Z,100.00
2022-10-11T02:15:09.212Z,100.00
2022-10-11T02:17:43.503Z,100.00
2022-10-11T02:20:16.259Z,100.00
2022-10-11T02:22:46.396Z,100.00
2022-10-11T02:25:17.844Z,100.00
2022-10-11T02:27:48.746Z,100.00
2022-10-11T02:30:16.372Z,100.00
2022-10-11T02:32:46.493Z,100.00
2022-10-11T02:35:13.799Z,100.00
2022-10-11T02:37:40.320Z,100.00
2022-10-11T02:40:15.947Z,100.00
2022-10-11T02:42:51.491Z,100.00
2022-10-11T02:45:38.906Z,100.00
2022-10-11T02:48:07.377Z,100.00
2022-10-11T02:50:37.699Z,100.00
2022-10-11T02:53:08.181Z,100.00
2022-10-11T02:55:35.526Z,100.00
2022-10-11T02:58:02.663Z,100.00
2022-10-11T03:00:29.584Z,100.00
2022-10-11T03:02:56.163Z,100.00
2022-10-11T03:05:22.714Z,100.00
2022-10-11T03:07:49.227Z,100.00
2022-10-11T03:10:15.889Z,100.00
2022-10-11T03:12:42.510Z,100.00
2022-10-11T03:15:09.482Z,100.00
2022-10-11T03:17:39.039Z,100.00
2022-10-11T03:20:09.174Z,100.00
2022-10-11T03:22:38.713Z,100.00
2022-10-11T03:25:06.232Z,100.00
2022-10-11T03:27:33.928Z,100.00
2022-10-11T03:30:01.039Z,100.00
2022-10-11T03:32:28.602Z,100.00
2022-10-11T03:34:55.340Z,100.00
2022-10-11T03:37:21.980Z,100.00
2022-10-11T03:39:48.823Z,100.00
2022-10-11T03:42:15.359Z,100.00
2022-10-11T03:44:42.266Z,100.00
2022-10-11T03:47:09.362Z,100.00
2022-10-11T03:49:43.275Z,100.00
2022-10-11T03:52:10.759Z,100.00
2022-10-11T03:54:37.638Z,100.00
2022-10-11T03:57:04.477Z,100.00
2022-10-11T03:59:31.103Z,100.00
2022-10-11T04:01:57.713Z,100.00
2022-10-11T04:04:24.313Z,100.00
2022-10-11T04:06:50.946Z,100.00
2022-10-11T04:09:17.523Z,100.00
2022-10-11T04:11:44.032Z,100.00
2022-10-11T04:14:10.592Z,100.00
2022-10-11T04:16:41.709Z,100.00
2022-10-11T04:19:10.466Z,100.00
2022-10-11T04:21:37.056Z,100.00
2022-10-11T04:24:04.150Z,100.00
2022-10-11T04:26:30.943Z,100.00
2022-10-11T04:28:57.767Z,100.00
2022-10-11T04:31:24.343Z,100.00
2022-10-11T04:33:50.959Z,100.00
2022-10-11T04:36:17.566Z,100.00
2022-10-11T04:38:44.125Z,100.00
2022-10-11T04:41:14.707Z,100.00
2022-10-11T04:43:41.636Z,100.00
2022-10-11T04:46:11.967Z,100.00
2022-10-11T04:48:38.630Z,100.00
2022-10-11T04:51:05.476Z,100.00
2022-10-11T04:53:32.126Z,100.00
2022-10-11T04:56:05.076Z,100.00
2022-10-11T04:58:34.039Z,100.00
2022-10-11T05:01:01.238Z,100.00
2022-10-11T05:03:28.324Z,100.00
2022-10-11T05:05:55.224Z,100.00
2022-10-11T05:08:24.442Z,100.00
2022-10-11T05:11:07.332Z,100.00
2022-10-11T05:13:37.379Z,100.00
2022-10-11T05:16:10.265Z,100.00
2022-10-11T05:18:38.375Z,100.00
2022-10-11T05:21:14.866Z,100.00
2022-10-11T05:23:44.854Z,100.00
2022-10-11T05:26:11.918Z,100.00
2022-10-11T05:28:38.743Z,100.00
2022-10-11T05:31:05.389Z,100.00
2022-10-11T05:33:32.588Z,100.00
2022-10-11T05:35:59.144Z,100.00
2022-10-11T05:38:25.633Z,100.00
2022-10-11T05:40:52.282Z,100.00
2022-10-11T05:43:18.964Z,100.00
2022-10-11T05:45:46.468Z,100.00
2022-10-11T05:48:16.000Z,100.00
2022-10-11T05:50:46.293Z,100.00
2022-10-11T05:53:14.417Z,100.00
2022-10-11T05:55:45.960Z,100.00
2022-10-11T05:58:15.236Z,100.00
2022-10-11T06:00:44.222Z,100.00
2022-10-11T06:03:14.503Z,100.00
2022-10-11T06:05:44.079Z,100.00
2022-10-11T06:08:11.221Z,100.00
2022-10-11T06:10:38.853Z,100.00
2022-10-11T06:13:06.487Z,100.00
2022-10-11T06:15:34.294Z,100.00
2022-10-11T06:18:01.221Z,100.00
2022-10-11T06:20:27.892Z,100.00
2022-10-11T06:22:54.527Z,100.00
2022-10-11T06:25:21.064Z,100.00
2022-10-11T06:27:47.665Z,100.00
2022-10-11T06:30:17.613Z,100.00
2022-10-11T06:32:46.861Z,100.00
2022-10-11T06:35:16.920Z,100.00
2022-10-11T06:37:46.224Z,100.00
2022-10-11T06:40:15.848Z,100.00
2022-10-11T06:42:44.883Z,100.00
2022-10-11T06:45:15.402Z,100.00
2022-10-11T06:47:44.242Z,100.00
2022-10-11T06:50:10.758Z,100.00
2022-10-11T06:52:37.309Z,100.00
2022-10-11T06:55:04.216Z,100.00
2022-10-11T06:57:30.713Z,100.00
2022-10-11T06:59:57.275Z,100.00
2022-10-11T07:02:23.782Z,100.00
2022-10-11T07:04:50.355Z,100.00
2022-10-11T07:07:17.069Z,100.00
2022-10-11T07:09:47.419Z,100.00
2022-10-11T07:12:17.117Z,100.00
2022-10-11T07:14:46.556Z,100.00
2022-10-11T07:17:15.897Z,100.00
2022-10-11T07:19:47.639Z,100.00
2022-10-11T07:22:17.494Z,100.00
2022-10-11T07:24:49.437Z,100.00
2022-10-11T07:27:15.966Z,100.00
2022-10-11T07:29:45.428Z,100.00
2022-10-11T07:32:14.270Z,100.00
2022-10-11T07:34:40.790Z,100.00
2022-10-11T07:37:07.382Z,100.00
2022-10-11T07:39:39.498Z,100.00
2022-10-11T07:42:06.910Z,100.00
2022-10-11T07:44:34.302Z,100.00
2022-10-11T07:47:00.894Z,100.00
2022-10-11T07:49:27.739Z,100.00
2022-10-11T07:51:54.336Z,100.00
2022-10-11T07:54:20.939Z,100.00
2022-10-11T07:56:47.496Z,100.00
2022-10-11T07:59:17.183Z,100.00
2022-10-11T08:01:46.809Z,100.00
2022-10-11T08:04:16.348Z,100.00
2022-10-11T08:06:48.614Z,100.00
2022-10-11T08:09:17.664Z,100.00
2022-10-11T08:11:46.974Z,100.00
2022-10-11T08:14:17.478Z,100.00
2022-10-11T08:16:46.661Z,98.72
2022-10-11T08:19:18.663Z,97.08
2022-10-11T08:21:45.312Z,93.57
2022-10-11T08:24:17.114Z,91.34
2022-10-11T08:26:48.431Z,89.39
2022-10-11T08:29:15.193Z,87.23
2022-10-11T08:31:42.009Z,88.58
2022-10-11T08:34:09.333Z,86.82
2022-10-11T08:36:35.946Z,86.99
2022-10-11T08:39:02.777Z,88.69
2022-10-11T08:41:38.092Z,89.25
2022-10-11T08:44:14.927Z,90.54
2022-10-11T08:46:47.009Z,91.44
2022-10-11T08:49:15.658Z,92.26
2022-10-11T08:51:50.830Z,93.28
2022-10-11T08:54:26.808Z,94.55
2022-10-11T08:56:53.595Z,94.01
2022-10-11T08:59:35.961Z,93.99
2022-10-11T09:02:55.690Z,94.92
2022-10-11T09:05:21.812Z,94.32
2022-10-11T09:08:05.592Z,94.62
2022-10-11T09:10:56.095Z,92.83
2022-10-11T09:13:31.475Z,94.26
2022-10-11T09:16:39.618Z,93.07
2022-10-11T09:19:34.872Z,92.77
2022-10-11T09:22:01.501Z,92.47
2022-10-11T09:24:49.116Z,92.17
2022-10-11T09:27:25.950Z,93.02
2022-10-11T09:30:14.737Z,94.34
2022-10-11T09:32:54.594Z,94.90
2022-10-11T09:35:22.748Z,95.88
2022-10-11T09:38:04.008Z,93.58
2022-10-11T09:41:14.317Z,91.95
2022-10-11T09:43:41.484Z,89.88
2022-10-11T09:46:32.483Z,88.63
2022-10-11T09:49:02.827Z,87.42
2022-10-11T09:51:30.288Z,87.45
2022-10-11T09:54:05.037Z,87.86
2022-10-11T09:56:33.934Z,87.60
2022-10-11T09:59:18.254Z,87.03
2022-10-11T10:01:45.257Z,84.73
2022-10-11T10:04:20.013Z,82.33
2022-10-11T10:06:46.650Z,82.23
2022-10-11T10:09:31.048Z,80.38
2022-10-11T10:12:00.026Z,79.71
2022-10-11T10:14:30.942Z,77.94
2022-10-11T10:17:01.857Z,77.47
2022-10-11T10:19:28.852Z,77.80
2022-10-11T10:21:56.811Z,78.60
2022-10-11T10:24:48.248Z,80.05
2022-10-11T10:27:14.766Z,77.39
2022-10-11T10:29:43.865Z,73.97
2022-10-11T10:32:25.649Z,73.42
2022-10-11T10:35:27.465Z,75.88
2022-10-11T10:38:06.846Z,75.55
2022-10-11T10:40:48.475Z,77.64
2022-10-11T10:43:23.960Z,77.20
2022-10-11T10:46:48.448Z,79.84
2022-10-11T10:49:55.566Z,81.42
2022-10-11T10:52:47.742Z,80.91
2022-10-11T10:55:24.227Z,83.17
2022-10-11T10:58:28.249Z,83.57
2022-10-11T11:01:15.674Z,84.70
2022-10-11T11:03:58.542Z,84.63
2022-10-11T11:06:37.225Z,85.87
2022-10-11T11:09:31.007Z,85.09
2022-10-11T11:12:10.520Z,84.56
2022-10-11T11:15:09.554Z,85.34
2022-10-11T11:18:00.446Z,85.15
2022-10-11T11:20:51.977Z,86.10
2022-10-11T11:23:41.957Z,86.70
2022-10-11T11:26:20.829Z,87.22
2022-10-11T11:29:03.506Z,88.75
2022-10-11T11:31:33.142Z,89.83
2022-10-11T11:34:08.781Z,90.25
2022-10-11T11:37:13.321Z,91.17
2022-10-11T11:39:53.125Z,92.59
2022-10-11T11:42:30.040Z,92.68
2022-10-11T11:45:00.438Z,92.58
2022-10-11T11:47:33.737Z,91.33
2022-10-11T11:50:20.850Z,91.63
2022-10-11T11:52:51.957Z,93.07
2022-10-11T11:55:32.387Z,92.85
2022-10-11T11:58:29.797Z,93.05
2022-10-11T12:01:31.512Z,90.58
2022-10-11T12:04:12.588Z,91.86
2022-10-11T12:06:47.918Z,90.71
2022-10-11T12:09:32.704Z,89.41
2022-10-11T12:12:01.595Z,88.05
2022-10-11T12:14:40.107Z,87.06
2022-10-11T12:17:09.383Z,87.03
2022-10-11T12:19:37.449Z,88.20
2022-10-11T12:22:28.992Z,86.18
2022-10-11T12:24:56.894Z,84.12
2022-10-11T12:27:44.451Z,84.12
2022-10-11T12:30:42.604Z,83.35
2022-10-11T12:33:33.332Z,82.64
2022-10-11T12:36:22.307Z,82.87
2022-10-11T12:39:20.962Z,81.57
2022-10-11T12:41:47.416Z,79.58
2022-10-11T12:44:20.784Z,79.24
2022-10-11T12:46:50.365Z,79.85
2022-10-11T12:49:38.052Z,79.14
2022-10-11T12:52:06.945Z,79.23
2022-10-11T12:54:52.556Z,80.43
2022-10-11T12:57:19.021Z,81.59
2022-10-11T12:59:46.853Z,81.49
2022-10-11T13:02:40.266Z,80.57
2022-10-11T13:05:25.720Z,81.64
2022-10-11T13:07:56.687Z,82.57
2022-10-11T13:10:28.936Z,83.78
2022-10-11T13:12:59.645Z,83.74
2022-10-11T13:15:26.941Z,83.93
2022-10-11T13:18:02.127Z,85.24
2022-10-11T13:20:36.229Z,85.04
2022-10-11T13:23:21.911Z,85.88
2022-10-11T13:25:52.755Z,86.65
2022-10-11T13:28:20.351Z,87.61
2022-10-11T13:30:54.357Z,88.73
2022-10-11T13:33:34.771Z,88.23
2022-10-11T13:36:03.987Z,89.20
2022-10-11T13:38:33.645Z,90.61
2022-10-11T13:41:05.285Z,91.38
2022-10-11T13:43:32.480Z,93.11
2022-10-11T13:46:01.537Z,95.34
2022-10-11T13:48:31.875Z,96.85
2022-10-11T13:51:28.045Z,98.42
2022-10-11T13:54:13.434Z,98.37
2022-10-11T13:56:49.846Z,99.36
2022-10-11T13:59:22.817Z,98.84
2022-10-11T14:01:54.285Z,98.48
2022-10-11T14:04:22.575Z,99.50
2022-10-11T14:06:54.513Z,98.63
2022-10-11T14:09:30.511Z,99.66
2022-10-11T14:12:25.887Z,99.28
2022-10-11T14:14:52.877Z,100.00
2022-10-11T14:17:21.881Z,100.00
2022-10-11T14:20:13.421Z,98.71
2022-10-11T14:22:39.928Z,98.32
2022-10-11T14:25:06.820Z,97.78
2022-10-11T14:27:33.411Z,97.18
2022-10-11T14:30:24.168Z,97.63
2022-10-11T14:32:50.248Z,97.02
2022-10-11T14:35:23.589Z,96.62
2022-10-11T14:37:50.298Z,97.69
2022-10-11T14:40:20.581Z,96.47
2022-10-11T14:42:50.945Z,96.68
2022-10-11T14:45:19.294Z,97.08
2022-10-11T14:47:45.971Z,98.85
2022-10-11T14:50:26.215Z,98.67
2022-10-11T14:52:53.598Z,98.87
2022-10-11T14:55:20.281Z,97.28
2022-10-11T14:57:50.031Z,94.95
2022-10-11T15:00:23.412Z,94.93
2022-10-11T15:02:52.729Z,94.70
2022-10-11T15:05:21.181Z,95.20
2022-10-11T15:07:49.195Z,94.50
2022-10-11T15:10:27.883Z,94.67
2022-10-11T15:12:56.125Z,95.02
2022-10-11T15:15:26.119Z,94.38
2022-10-11T15:17:55.475Z,92.70
2022-10-11T15:20:38.416Z,94.08
2022-10-11T15:23:05.684Z,95.15
2022-10-11T15:25:34.747Z,95.77
2022-10-11T15:28:02.138Z,96.45
2022-10-11T15:30:31.603Z,95.38
2022-10-11T15:32:58.692Z,95.53
2022-10-11T15:35:26.673Z,96.18
2022-10-11T15:37:56.684Z,97.18
2022-10-11T15:40:24.528Z,97.09
2022-10-11T15:42:53.560Z,96.92
2022-10-11T15:45:22.835Z,97.78
2022-10-11T15:47:49.963Z,98.50
2022-10-11T15:50:34.616Z,98.16
2022-10-11T15:53:13.609Z,99.29
2022-10-11T15:55:52.076Z,100.00
2022-10-11T15:58:36.288Z,100.00
2022-10-11T16:01:09.778Z,100.00
2022-10-11T16:03:36.742Z,100.00
2022-10-11T16:06:05.738Z,100.00
2022-10-11T16:08:34.136Z,100.00
2022-10-11T16:11:01.184Z,100.00
2022-10-11T16:13:27.945Z,100.00
2022-10-11T16:15:55.060Z,100.00
2022-10-11T16:18:24.793Z,100.00
2022-10-11T16:20:52.486Z,100.00
2022-10-11T16:23:22.243Z,100.00
2022-10-11T16:26:00.575Z,100.00
2022-10-11T16:28:27.726Z,100.00
2022-10-11T16:30:54.779Z,100.00
2022-10-11T16:33:21.779Z,100.00
2022-10-11T16:35:49.246Z,100.00
2022-10-11T16:38:18.201Z,100.00
2022-10-11T16:40:44.693Z,100.00
2022-10-11T16:43:11.218Z,100.00
2022-10-11T16:45:40.484Z,100.00
2022-10-11T16:48:07.026Z,100.00
2022-10-11T16:50:38.475Z,100.00
2022-10-11T16:53:06.096Z,100.00
2022-10-11T16:55:32.647Z,100.00
2022-10-11T16:57:59.162Z,100.00
2022-10-11T17:00:25.794Z,100.00
2022-10-11T17:02:52.391Z,100.00
2022-10-11T17:05:18.960Z,100.00
2022-10-11T17:07:48.663Z,100.00
2022-10-11T17:10:15.483Z,100.00
2022-10-11T17:12:46.462Z,100.00
2022-10-11T17:15:17.852Z,100.00
2022-10-11T17:17:44.357Z,100.00
2022-10-11T17:20:11.093Z,100.00
2022-10-11T17:22:37.582Z,100.00
2022-10-11T17:25:04.335Z,100.00
2022-10-11T17:27:31.378Z,100.00
2022-10-11T17:29:57.873Z,100.00
2022-10-11T17:32:24.405Z,100.00
2022-10-11T17:34:50.978Z,100.00
2022-10-11T17:37:19.095Z,100.00
2022-10-11T17:39:47.145Z,100.00
2022-10-11T17:42:13.755Z,100.00
2022-10-11T17:44:40.314Z,100.00
2022-10-11T17:47:06.813Z,100.00
2022-10-11T17:49:33.309Z,100.00
2022-10-11T17:51:59.799Z,100.00
2022-10-11T17:54:26.449Z,100.00
2022-10-11T17:56:54.472Z,100.00
2022-10-11T17:59:22.960Z,100.00
2022-10-11T18:01:52.550Z,100.00
2022-10-11T18:04:24.007Z,100.00
2022-10-11T18:06:53.727Z,100.00
2022-10-11T18:09:21.813Z,100.00
2022-10-11T18:11:52.793Z,100.00
2022-10-11T18:14:22.430Z,100.00
2022-10-11T18:16:51.746Z,100.00
2022-10-11T18:19:20.662Z,100.00
2022-10-11T18:21:47.159Z,100.00
2022-10-11T18:24:16.526Z,100.00
2022-10-11T18:26:44.849Z,100.00
2022-10-11T18:29:12.646Z,100.00
2022-10-11T18:31:39.952Z,100.00
2022-10-11T18:34:08.361Z,100.00
2022-10-11T18:36:34.957Z,100.00
2022-10-11T18:39:05.465Z,100.00
2022-10-11T18:41:33.176Z,100.00
2022-10-11T18:44:05.994Z,100.00
2022-10-11T18:46:33.119Z,100.00
2022-10-11T18:49:01.944Z,100.00
2022-10-11T18:51:34.687Z,100.00
2022-10-11T18:54:02.071Z,100.00
2022-10-11T18:56:31.266Z,100.00
2022-10-11T18:58:59.200Z,100.00
2022-10-11T19:01:31.599Z,100.00
2022-10-11T19:04:00.325Z,100.00
2022-10-11T19:06:29.773Z,100.00
2022-10-11T19:09:01.829Z,100.00
2022-10-11T19:11:28.634Z,100.00
2022-10-11T19:14:00.837Z,100.00
2022-10-11T19:16:30.075Z,100.00
2022-10-11T19:18:56.904Z,100.00
2022-10-11T19:21:23.617Z,100.00
2022-10-11T19:23:50.911Z,100.00
2022-10-11T19:26:21.490Z,100.00
2022-10-11T19:28:48.588Z,100.00
2022-10-11T19:31:18.994Z,100.00
2022-10-11T19:33:48.098Z,100.00
2022-10-11T19:36:15.424Z,100.00
2022-10-11T19:38:49.469Z,100.00
2022-10-11T19:41:19.539Z,100.00
2022-10-11T19:43:47.085Z,100.00
2022-10-11T19:46:20.142Z,100.00
2022-10-11T19:48:53.008Z,100.00
2022-10-11T19:51:24.894Z,100.00
2022-10-11T19:54:03.820Z,100.00
2022-10-11T19:56:34.701Z,100.00
2022-10-11T19:59:01.782Z,100.00
2022-10-11T20:01:30.966Z,100.00
2022-10-11T20:03:59.751Z,100.00
2022-10-11T20:06:28.281Z,100.00
2022-10-11T20:09:16.561Z,100.00
2022-10-11T20:11:42.261Z,100.00
2022-10-11T20:14:08.888Z,100.00
2022-10-11T20:16:35.766Z,100.00
2022-10-11T20:19:02.556Z,100.00
2022-10-11T20:21:30.279Z,100.00
2022-10-11T20:23:59.912Z,100.00
2022-10-11T20:26:27.566Z,100.00
2022-10-11T20:28:56.137Z,100.00
2022-10-11T20:31:34.224Z,100.00
2022-10-11T20:34:04.312Z,100.00
2022-10-11T20:36:32.645Z,100.00
2022-10-11T20:39:00.249Z,100.00
2022-10-11T20:41:32.257Z,100.00
2022-10-11T20:44:01.043Z,100.00
2022-10-11T20:46:30.115Z,100.00
2022-10-11T20:49:01.748Z,100.00
2022-10-11T20:51:30.200Z,100.00
2022-10-11T20:53:56.977Z,100.00
2022-10-11T20:56:23.809Z,100.00
2022-10-11T20:58:52.488Z,100.00
2022-10-11T21:01:22.135Z,100.00
2022-10-11T21:03:48.747Z,100.00
2022-10-11T21:06:15.490Z,100.00
2022-10-11T21:08:42.331Z,100.00
2022-10-11T21:11:09.571Z,100.00
2022-10-11T21:13:36.532Z,100.00
2022-10-11T21:16:10.562Z,100.00
2022-10-11T21:18:37.773Z,100.00
2022-10-11T21:21:09.404Z,100.00
2022-10-11T21:23:36.072Z,100.00
2022-10-11T21:26:04.271Z,100.00
2022-10-11T21:28:31.851Z,100.00
2022-10-11T21:31:05.252Z,100.00
2022-10-11T21:33:32.773Z,100.00
2022-10-11T21:36:00.136Z,100.00
2022-10-11T21:38:26.658Z,100.00
2022-10-11T21:40:53.229Z,100.00
2022-10-11T21:43:19.735Z,100.00
2022-10-11T21:45:46.328Z,100.00
2022-10-11T21:48:12.878Z,100.00
2022-10-11T21:50:39.428Z,100.00
2022-10-11T21:53:05.912Z,100.00
2022-10-11T21:55:32.424Z,100.00
2022-10-11T21:57:58.939Z,100.00
2022-10-11T22:00:25.500Z,100.00
2022-10-11T22:02:52.237Z,100.00
2022-10-11T22:05:18.833Z,100.00
2022-10-11T22:07:45.611Z,100.00
2022-10-11T22:10:12.132Z,100.00
2022-10-11T22:12:38.754Z,100.00
2022-10-11T22:15:05.914Z,100.00
2022-10-11T22:17:32.399Z,100.00
2022-10-11T22:19:58.923Z,100.00
2022-10-11T22:22:25.488Z,100.00
2022-10-11T22:24:51.965Z,100.00
2022-10-11T22:27:18.471Z,100.00
2022-10-11T22:29:44.976Z,100.00
2022-10-11T22:32:11.528Z,100.00
2022-10-11T22:34:38.022Z,100.00
2022-10-11T22:37:04.562Z,100.00
2022-10-11T22:39:31.050Z,100.00
2022-10-11T22:41:57.526Z,100.00
2022-10-11T22:44:24.039Z,100.00
2022-10-11T22:46:50.556Z,100.00
2022-10-11T22:49:17.061Z,100.00
2022-10-11T22:51:44.466Z,100.00
2022-10-11T22:54:11.432Z,100.00
2022-10-11T22:56:37.946Z,100.00
2022-10-11T22:59:04.536Z,100.00
2022-10-11T23:01:31.049Z,100.00
2022-10-11T23:03:57.631Z,100.00
2022-10-11T23:06:24.163Z,100.00
2022-10-11T23:08:50.656Z,100.00
2022-10-11T23:11:17.254Z,100.00
2022-10-11T23:13:43.793Z,100.00
2022-10-11T23:16:12.231Z,100.00
2022-10-11T23:18:39.157Z,100.00
2022-10-11T23:21:06.834Z,100.00
2022-10-11T23:23:33.709Z,100.00
2022-10-11T23:26:04.564Z,100.00
2022-10-11T23:28:31.791Z,100.00
2022-10-11T23:30:58.433Z,100.00
2022-10-11T23:33:25.187Z,100.00
2022-10-11T23:35:51.653Z,100.00
2022-10-11T23:38:18.182Z,100.00
2022-10-11T23:40:44.693Z,100.00
2022-10-11T23:43:11.233Z,100.00
2022-10-11T23:45:37.735Z,100.00
2022-10-11T23:48:04.658Z,100.00
2022-10-11T23:50:31.162Z,100.00
2022-10-11T23:52:57.684Z,100.00
2022-10-11T23:55:24.181Z,100.00
2022-10-11T23:57:50.679Z,100.00
